Time;durP1;ratioP1;P1;durP2;ratioP2;P2;SDS_P1;SDS_P2;PMS_P1;PMS_P2;Temp;Humidity;BMP_temperature;BMP_pressure;BME280_temperature;BME280_humidity;BME280_pressure;Samples;Min_cycle;Max_cycle;Signal;HPM_P1;HPM_P2
2023/09/08 00:01:01;;;;;;;4.20;2.90;;;;;;;;;;7302284;19;140545;-90
2023/09/08 00:03:28;;;;;;;5.45;3.25;;;;;;;;;;7302429;19;141889;-90
2023/09/08 00:05:55;;;;;;;4.03;3.22;;;;;;;;;;7301512;19;142588;-89
2023/09/08 00:08:24;;;;;;;4.55;3.05;;;;;;;;;;7302202;19;140508;-89
2023/09/08 00:10:51;;;;;;;4.80;2.92;;;;;;;;;;7302652;19;140674;-89
2023/09/08 00:13:18;;;;;;;4.00;2.80;;;;;;;;;;7302173;19;140573;-89
2023/09/08 00:15:45;;;;;;;4.30;2.97;;;;;;;;;;7301852;19;142695;-89
2023/09/08 00:18:12;;;;;;;3.80;2.90;;;;;;;;;;7301324;19;140650;-89
2023/09/08 00:20:41;;;;;;;3.28;2.70;;;;;;;;;;7301529;19;140692;-88
2023/09/08 00:23:08;;;;;;;4.50;3.08;;;;;;;;;;7299421;19;141652;-85
2023/09/08 00:25:36;;;;;;;3.80;2.80;;;;;;;;;;7299479;19;143383;-83
2023/09/08 00:28:03;;;;;;;3.83;3.00;;;;;;;;;;7300346;19;140336;-84
2023/09/08 00:30:32;;;;;;;3.80;2.70;;;;;;;;;;7299908;19;140768;-84
2023/09/08 00:32:59;;;;;;;2.90;2.60;;;;;;;;;;7300137;19;141034;-84
2023/09/08 00:35:26;;;;;;;4.13;3.00;;;;;;;;;;7299588;19;141873;-84
2023/09/08 00:37:53;;;;;;;4.13;2.95;;;;;;;;;;7300122;19;140374;-84
2023/09/08 00:40:20;;;;;;;4.38;3.10;;;;;;;;;;7299219;19;140530;-84
2023/09/08 00:42:47;;;;;;;2.80;2.50;;;;;;;;;;7299322;19;142046;-83
2023/09/08 00:45:14;;;;;;;3.95;3.05;;;;;;;;;;7299968;19;142142;-84
2023/09/08 00:47:42;;;;;;;3.10;2.80;;;;;;;;;;7299449;19;140447;-83
2023/09/08 00:50:09;;;;;;;3.78;2.80;;;;;;;;;;7299832;19;140628;-81
2023/09/08 00:52:36;;;;;;;4.57;3.00;;;;;;;;;;7302156;19;141424;-81
2023/09/08 00:55:04;;;;;;;3.10;2.80;;;;;;;;;;7305921;19;143184;-81
2023/09/08 00:57:31;;;;;;;3.38;2.63;;;;;;;;;;7305765;19;140472;-80
2023/09/08 00:59:59;;;;;;;3.38;2.85;;;;;;;;;;7307216;19;140471;-82
2023/09/08 01:02:28;;;;;;;3.40;3.05;;;;;;;;;;7306785;19;141897;-81
2023/09/08 01:04:55;;;;;;;4.10;2.58;;;;;;;;;;7307444;19;141418;-80
2023/09/08 01:07:22;;;;;;;2.90;2.60;;;;;;;;;;7306887;19;140365;-82
2023/09/08 01:09:50;;;;;;;3.28;2.83;;;;;;;;;;7306034;19;141273;-82
2023/09/08 01:12:18;;;;;;;3.45;2.60;;;;;;;;;;7307786;19;141286;-84
2023/09/08 01:14:45;;;;;;;3.42;2.55;;;;;;;;;;7305860;19;142138;-82
2023/09/08 01:17:13;;;;;;;4.40;2.88;;;;;;;;;;7306438;19;140544;-83
2023/09/08 01:19:41;;;;;;;3.03;2.65;;;;;;;;;;7305811;19;140539;-79
2023/09/08 01:22:11;;;;;;;3.00;2.63;;;;;;;;;;7305981;19;140993;-78
2023/09/08 01:24:57;;;;;;;3.20;2.58;;;;;;;;;;7304300;19;141921;-84
2023/09/08 01:27:24;;;;;;;4.32;2.78;;;;;;;;;;7306006;19;140813;-82
2023/09/08 01:29:53;;;;;;;3.63;2.65;;;;;;;;;;7304919;19;140511;-82
2023/09/08 01:32:20;;;;;;;4.45;3.00;;;;;;;;;;7304544;19;140883;-83
2023/09/08 01:34:47;;;;;;;2.80;2.60;;;;;;;;;;7305150;19;142565;-83
2023/09/08 01:37:14;;;;;;;3.72;2.65;;;;;;;;;;7304941;19;140565;-83
2023/09/08 01:39:41;;;;;;;3.38;2.45;;;;;;;;;;7304223;19;140780;-83
2023/09/08 01:42:08;;;;;;;3.15;2.47;;;;;;;;;;7302775;19;142019;-83
2023/09/08 01:44:36;;;;;;;2.92;2.47;;;;;;;;;;7304801;19;140817;-83
2023/09/08 01:47:03;;;;;;;3.30;2.60;;;;;;;;;;7305310;19;140353;-83
2023/09/08 01:49:30;;;;;;;2.78;2.45;;;;;;;;;;7304658;19;141071;-83
2023/09/08 01:51:57;;;;;;;3.13;2.67;;;;;;;;;;7303524;19;141664;-83
2023/09/08 01:54:24;;;;;;;3.10;2.55;;;;;;;;;;7304349;19;141826;-82
2023/09/08 01:56:51;;;;;;;3.35;2.70;;;;;;;;;;7303892;19;140677;-83
2023/09/08 01:59:19;;;;;;;3.28;2.55;;;;;;;;;;7304724;19;140773;-83
2023/09/08 02:01:46;;;;;;;3.03;2.55;;;;;;;;;;7305033;19;141325;-83
2023/09/08 02:04:13;;;;;;;2.58;2.35;;;;;;;;;;7304349;19;140862;-82
2023/09/08 02:06:40;;;;;;;3.28;2.35;;;;;;;;;;7304174;19;140486;-78
2023/09/08 02:09:08;;;;;;;2.72;2.53;;;;;;;;;;7304486;19;140551;-78
2023/09/08 02:11:35;;;;;;;3.00;2.70;;;;;;;;;;7303376;19;141203;-79
2023/09/08 02:14:03;;;;;;;3.70;2.78;;;;;;;;;;7303505;19;141100;-78
2023/09/08 02:16:30;;;;;;;3.47;2.50;;;;;;;;;;7302671;19;140707;-78
2023/09/08 02:18:57;;;;;;;3.55;2.72;;;;;;;;;;7303818;19;140686;-78
2023/09/08 02:21:24;;;;;;;2.75;2.42;;;;;;;;;;7302274;19;140541;-79
2023/09/08 02:23:51;;;;;;;3.17;2.80;;;;;;;;;;7303100;19;141844;-79
2023/09/08 02:26:18;;;;;;;3.38;2.60;;;;;;;;;;7303342;19;140647;-79
2023/09/08 02:28:45;;;;;;;3.10;2.50;;;;;;;;;;7304153;19;140643;-79
2023/09/08 02:31:12;;;;;;;2.55;2.10;;;;;;;;;;7303108;19;141607;-79
2023/09/08 02:33:39;;;;;;;3.17;2.60;;;;;;;;;;7301699;19;142160;-79
2023/09/08 02:36:07;;;;;;;2.67;2.45;;;;;;;;;;7303657;19;140489;-79
2023/09/08 02:38:34;;;;;;;2.63;2.42;;;;;;;;;;7303587;19;140644;-80
2023/09/08 02:41:01;;;;;;;2.63;2.25;;;;;;;;;;7302189;19;141610;-79
2023/09/08 02:43:28;;;;;;;3.03;2.38;;;;;;;;;;7303572;19;140994;-78
2023/09/08 02:45:56;;;;;;;3.17;2.40;;;;;;;;;;7303658;19;140941;-79
2023/09/08 02:48:24;;;;;;;3.80;2.20;;;;;;;;;;7299440;19;140699;-78
2023/09/08 02:50:53;;;;;;;2.60;2.40;;;;;;;;;;7304868;19;140926;-79
2023/09/08 02:53:20;;;;;;;2.33;2.10;;;;;;;;;;7315223;19;142766;-78
2023/09/08 02:55:47;;;;;;;2.70;2.50;;;;;;;;;;7312138;19;140444;-78
2023/09/08 02:58:14;;;;;;;2.67;2.30;;;;;;;;;;7312995;19;140318;-78
2023/09/08 03:00:41;;;;;;;2.58;2.35;;;;;;;;;;7312531;19;141314;-79
2023/09/08 03:03:08;;;;;;;2.75;2.33;;;;;;;;;;7309859;19;143284;-79
2023/09/08 03:05:36;;;;;;;2.50;2.30;;;;;;;;;;7313207;19;140562;-79
2023/09/08 03:08:05;;;;;;;2.88;2.30;;;;;;;;;;7319104;19;140221;-79
2023/09/08 03:10:34;;;;;;;2.53;2.03;;;;;;;;;;7320893;19;140320;-79
2023/09/08 03:13:01;;;;;;;2.85;2.40;;;;;;;;;;7325226;19;141040;-79
2023/09/08 03:15:28;;;;;;;2.25;2.05;;;;;;;;;;7310748;19;140489;-79
2023/09/08 03:17:55;;;;;;;3.45;2.33;;;;;;;;;;7305594;19;140611;-80
2023/09/08 03:20:22;;;;;;;2.38;2.05;;;;;;;;;;7303439;19;140511;-80
2023/09/08 03:22:49;;;;;;;2.30;2.10;;;;;;;;;;7301639;19;142124;-79
2023/09/08 03:25:16;;;;;;;2.80;2.50;;;;;;;;;;7302923;19;140677;-78
2023/09/08 03:27:44;;;;;;;2.30;2.03;;;;;;;;;;7303129;19;140833;-79
2023/09/08 03:30:11;;;;;;;2.88;2.42;;;;;;;;;;7300919;19;141280;-79
2023/09/08 03:32:38;;;;;;;2.28;2.08;;;;;;;;;;7301883;19;142100;-79
2023/09/08 03:35:08;;;;;;;2.60;2.40;;;;;;;;;;7301500;19;140390;-78
2023/09/08 03:37:35;;;;;;;2.47;2.15;;;;;;;;;;7301993;19;140671;-78
2023/09/08 03:40:05;;;;;;;2.30;2.10;;;;;;;;;;7301661;19;141132;-79
2023/09/08 03:42:32;;;;;;;2.55;2.25;;;;;;;;;;7301662;19;143257;-79
2023/09/08 03:44:59;;;;;;;2.38;2.17;;;;;;;;;;7301615;19;140733;-78
2023/09/08 03:47:26;;;;;;;2.40;2.20;;;;;;;;;;7300810;19;140568;-79
2023/09/08 03:49:54;;;;;;;2.30;2.08;;;;;;;;;;7300952;19;141702;-79
2023/09/08 03:52:21;;;;;;;2.50;2.30;;;;;;;;;;7301255;19;141487;-78
2023/09/08 03:54:48;;;;;;;3.38;2.22;;;;;;;;;;7301158;19;140609;-79
2023/09/08 03:57:15;;;;;;;2.42;2.00;;;;;;;;;;7300201;19;140668;-79
2023/09/08 03:59:42;;;;;;;2.97;2.20;;;;;;;;;;7301534;19;140449;-79
2023/09/08 04:02:09;;;;;;;2.35;2.08;;;;;;;;;;7300162;19;141272;-79
2023/09/08 04:04:36;;;;;;;2.22;2.03;;;;;;;;;;7300841;19;140432;-79
2023/09/08 04:07:03;;;;;;;2.33;2.13;;;;;;;;;;7300826;19;140546;-79
2023/09/08 04:09:31;;;;;;;2.28;2.03;;;;;;;;;;7300931;19;140953;-79
2023/09/08 04:11:58;;;;;;;2.15;1.95;;;;;;;;;;7298465;19;142974;-80
2023/09/08 04:14:28;;;;;;;2.15;1.98;;;;;;;;;;7301368;19;140590;-80
2023/09/08 04:16:55;;;;;;;2.10;1.90;;;;;;;;;;7300819;19;140676;-79
2023/09/08 04:19:22;;;;;;;2.15;1.95;;;;;;;;;;7300518;19;140819;-80
2023/09/08 04:21:49;;;;;;;2.50;2.30;;;;;;;;;;7300000;19;141850;-80
2023/09/08 04:24:16;;;;;;;2.35;2.15;;;;;;;;;;7300391;19;140734;-80
2023/09/08 04:26:43;;;;;;;2.40;2.20;;;;;;;;;;7299652;19;140487;-80
2023/09/08 04:29:10;;;;;;;2.28;2.08;;;;;;;;;;7306764;19;141199;-80
2023/09/08 04:31:37;;;;;;;2.22;2.00;;;;;;;;;;7304823;19;142106;-76
2023/09/08 04:34:04;;;;;;;2.28;2.08;;;;;;;;;;7304815;19;140646;-76
2023/09/08 04:36:32;;;;;;;1.88;1.77;;;;;;;;;;7306063;19;141505;-76
2023/09/08 04:38:58;;;;;;;2.13;1.90;;;;;;;;;;7306211;19;141807;-76
2023/09/08 04:41:25;;;;;;;2.10;1.90;;;;;;;;;;7305514;19;142184;-76
2023/09/08 04:43:53;;;;;;;2.47;2.17;;;;;;;;;;7306475;19;140504;-78
2023/09/08 04:46:20;;;;;;;3.22;2.40;;;;;;;;;;7306661;19;140761;-75
2023/09/08 04:48:48;;;;;;;2.78;2.17;;;;;;;;;;7306551;19;141001;-76
2023/09/08 04:51:15;;;;;;;2.55;2.15;;;;;;;;;;7305497;19;142221;-77
2023/09/08 04:53:42;;;;;;;2.75;2.20;;;;;;;;;;7306156;19;140925;-77
2023/09/08 04:56:13;;;;;;;2.40;2.17;;;;;;;;;;7306705;19;140644;-78
2023/09/08 04:58:40;;;;;;;2.33;2.00;;;;;;;;;;7305980;19;141239;-76
2023/09/08 05:01:07;;;;;;;1.90;1.80;;;;;;;;;;7303530;19;142054;-76
2023/09/08 05:03:34;;;;;;;2.60;2.30;;;;;;;;;;7305676;19;140753;-74
2023/09/08 05:06:01;;;;;;;3.28;2.40;;;;;;;;;;7305818;19;140507;-75
2023/09/08 05:08:28;;;;;;;2.88;2.35;;;;;;;;;;7305056;19;141423;-75
2023/09/08 05:10:55;;;;;;;2.53;2.17;;;;;;;;;;7303332;19;141791;-75
2023/09/08 05:13:26;;;;;;;1.95;1.85;;;;;;;;;;7306112;19;140714;-77
2023/09/08 05:16:00;;;;;;;2.45;2.20;;;;;;;;;;7304340;19;140736;-78
2023/09/08 05:18:27;;;;;;;2.53;2.03;;;;;;;;;;7305216;19;141298;-77
2023/09/08 05:20:54;;;;;;;2.03;1.88;;;;;;;;;;7305113;19;141935;-77
2023/09/08 05:23:21;;;;;;;2.53;2.03;;;;;;;;;;7305093;19;140581;-77
2023/09/08 05:25:48;;;;;;;3.47;1.90;;;;;;;;;;7304685;19;140672;-77
2023/09/08 05:28:15;;;;;;;2.13;1.92;;;;;;;;;;7304700;19;141044;-77
2023/09/08 05:30:42;;;;;;;2.38;2.13;;;;;;;;;;7304947;19;142029;-76
2023/09/08 05:33:09;;;;;;;2.53;2.03;;;;;;;;;;7305361;19;140448;-76
2023/09/08 05:35:36;;;;;;;2.53;2.13;;;;;;;;;;7305302;19;140812;-76
2023/09/08 05:38:04;;;;;;;2.47;2.17;;;;;;;;;;7303910;19;141133;-75
2023/09/08 05:40:32;;;;;;;2.45;2.00;;;;;;;;;;7303275;19;143284;-76
2023/09/08 05:43:00;;;;;;;2.30;2.10;;;;;;;;;;7303418;19;140562;-76
2023/09/08 05:45:27;;;;;;;2.60;1.90;;;;;;;;;;7304757;19;140538;-78
2023/09/08 05:47:54;;;;;;;2.30;1.98;;;;;;;;;;7304729;19;140935;-77
2023/09/08 05:50:21;;;;;;;2.03;1.85;;;;;;;;;;7304020;19;141303;-76
2023/09/08 05:52:48;;;;;;;2.42;2.22;;;;;;;;;;7304440;19;140571;-76
2023/09/08 05:55:15;;;;;;;2.17;1.98;;;;;;;;;;7304431;19;140605;-77
2023/09/08 05:57:42;;;;;;;2.10;1.90;;;;;;;;;;7303260;19;141689;-77
2023/09/08 06:00:10;;;;;;;2.42;2.10;;;;;;;;;;7304114;19;141977;-76
2023/09/08 06:02:37;;;;;;;2.08;1.88;;;;;;;;;;7304002;19;140345;-76
2023/09/08 06:05:04;;;;;;;2.30;2.10;;;;;;;;;;7303405;19;140712;-76
2023/09/08 06:07:31;;;;;;;2.45;2.08;;;;;;;;;;7303207;19;140951;-76
2023/09/08 06:09:58;;;;;;;3.17;2.25;;;;;;;;;;7303053;19;141393;-77
2023/09/08 06:12:25;;;;;;;2.88;2.55;;;;;;;;;;7303365;19;140442;-76
2023/09/08 06:14:53;;;;;;;3.03;2.08;;;;;;;;;;7303433;19;140636;-76
2023/09/08 06:17:20;;;;;;;2.40;2.20;;;;;;;;;;7301418;19;141138;-76
2023/09/08 06:19:47;;;;;;;2.83;2.15;;;;;;;;;;7303408;19;142610;-76
2023/09/08 06:22:14;;;;;;;2.30;2.10;;;;;;;;;;7303806;19;141017;-76
2023/09/08 06:24:42;;;;;;;2.25;2.05;;;;;;;;;;7303257;19;140526;-77
2023/09/08 06:27:11;;;;;;;2.03;1.83;;;;;;;;;;7302794;19;140575;-76
2023/09/08 06:29:39;;;;;;;2.10;1.90;;;;;;;;;;7303386;19;142473;-77
2023/09/08 06:32:09;;;;;;;2.42;2.22;;;;;;;;;;7302874;19;140759;-76
2023/09/08 06:34:36;;;;;;;2.38;2.17;;;;;;;;;;7302804;19;140527;-76
2023/09/08 06:37:04;;;;;;;2.35;2.15;;;;;;;;;;7302704;19;140862;-76
2023/09/08 06:39:31;;;;;;;2.20;2.00;;;;;;;;;;7301989;19;143121;-76
2023/09/08 06:41:58;;;;;;;2.60;2.35;;;;;;;;;;7302356;19;140677;-77
2023/09/08 06:44:26;;;;;;;2.78;2.28;;;;;;;;;;7302803;19;140631;-77
2023/09/08 06:46:53;;;;;;;2.40;2.20;;;;;;;;;;7302418;19;141865;-77
2023/09/08 06:49:21;;;;;;;2.38;2.17;;;;;;;;;;7301119;19;140685;-77
2023/09/08 06:51:48;;;;;;;2.40;2.20;;;;;;;;;;7301583;19;140790;-78
2023/09/08 06:54:16;;;;;;;2.10;2.00;;;;;;;;;;7303114;19;140708;-77
2023/09/08 06:56:43;;;;;;;2.60;2.40;;;;;;;;;;7301484;19;141020;-76
2023/09/08 06:59:10;;;;;;;2.20;2.00;;;;;;;;;;7302082;19;141854;-78
2023/09/08 07:01:37;;;;;;;2.97;2.22;;;;;;;;;;7302354;19;140816;-77
2023/09/08 07:04:05;;;;;;;2.25;2.05;;;;;;;;;;7300289;19;140733;-78
2023/09/08 07:06:32;;;;;;;2.25;2.05;;;;;;;;;;7301442;19;141726;-77
2023/09/08 07:08:59;;;;;;;2.38;2.17;;;;;;;;;;7301653;19;142090;-77
2023/09/08 07:11:27;;;;;;;2.65;2.20;;;;;;;;;;7301607;19;140674;-77
2023/09/08 07:13:54;;;;;;;2.55;2.10;;;;;;;;;;7299611;19;140842;-76
2023/09/08 07:16:21;;;;;;;2.40;2.20;;;;;;;;;;7301324;19;141523;-78
2023/09/08 07:18:48;;;;;;;2.35;2.10;;;;;;;;;;7301464;19;142436;-78
2023/09/08 07:21:15;;;;;;;2.80;2.22;;;;;;;;;;7301780;19;140932;-78
2023/09/08 07:23:43;;;;;;;3.60;2.50;;;;;;;;;;7301388;19;140378;-79
2023/09/08 07:26:10;;;;;;;3.25;2.70;;;;;;;;;;7300979;19;140923;-77
2023/09/08 07:28:37;;;;;;;3.33;2.80;;;;;;;;;;7299986;19;142449;-81
2023/09/08 07:31:05;;;;;;;8.57;4.05;;;;;;;;;;7302436;19;140595;-81
2023/09/08 07:33:32;;;;;;;4.85;3.60;;;;;;;;;;7301113;19;140453;-82
2023/09/08 07:36:04;;;;;;;6.35;4.25;;;;;;;;;;7299253;19;141289;-82
2023/09/08 07:38:33;;;;;;;4.53;3.70;;;;;;;;;;7301162;19;142303;-80
2023/09/08 07:41:01;;;;;;;5.45;3.97;;;;;;;;;;7299511;19;140734;-79
2023/09/08 07:43:28;;;;;;;6.78;3.95;;;;;;;;;;7298904;19;140720;-80
2023/09/08 07:45:56;;;;;;;7.18;3.95;;;;;;;;;;7300721;19;140570;-80
2023/09/08 07:48:23;;;;;;;6.28;4.10;;;;;;;;;;7301164;19;141930;-80
2023/09/08 07:50:51;;;;;;;4.47;3.70;;;;;;;;;;7300801;19;143080;-80
2023/09/08 07:53:18;;;;;;;6.75;3.72;;;;;;;;;;7301276;19;140615;-80
2023/09/08 07:55:45;;;;;;;6.80;3.83;;;;;;;;;;7300241;19;141023;-80
2023/09/08 07:58:12;;;;;;;6.53;4.50;;;;;;;;;;7300012;19;141968;-81
2023/09/08 08:00:39;;;;;;;7.60;3.92;;;;;;;;;;7301168;19;140734;-81
2023/09/08 08:03:06;;;;;;;5.38;3.70;;;;;;;;;;7308092;19;140766;-82
2023/09/08 08:05:34;;;;;;;5.40;3.53;;;;;;;;;;7308194;19;141530;-80
2023/09/08 08:08:01;;;;;;;4.43;3.65;;;;;;;;;;7307690;19;141802;-78
2023/09/08 08:10:31;;;;;;;5.72;3.60;;;;;;;;;;7307326;19;140626;-79
2023/09/08 08:12:58;;;;;;;4.93;3.55;;;;;;;;;;7306831;19;141144;-80
2023/09/08 08:15:35;;;;;;;5.20;3.33;;;;;;;;;;7306097;19;141173;-77
2023/09/08 08:18:03;;;;;;;4.55;3.42;;;;;;;;;;7307241;19;141190;-76
2023/09/08 08:20:34;;;;;;;6.40;3.33;;;;;;;;;;7308089;19;140458;-77
2023/09/08 08:23:01;;;;;;;5.32;3.60;;;;;;;;;;7307672;19;140654;-79
2023/09/08 08:25:29;;;;;;;4.97;3.63;;;;;;;;;;7306846;19;141569;-80
2023/09/08 08:27:58;;;;;;;5.53;3.08;;;;;;;;;;7306597;19;141110;-80
2023/09/08 08:30:26;;;;;;;4.60;3.60;;;;;;;;;;7306403;19;140870;-79
2023/09/08 08:32:54;;;;;;;4.15;3.33;;;;;;;;;;7305997;19;140568;-78
2023/09/08 08:35:21;;;;;;;5.05;3.35;;;;;;;;;;7306934;19;140674;-78
2023/09/08 08:37:49;;;;;;;5.93;3.63;;;;;;;;;;7306273;19;141845;-78
2023/09/08 08:40:17;;;;;;;4.18;3.50;;;;;;;;;;7306792;19;140923;-79
2023/09/08 08:42:44;;;;;;;4.53;3.80;;;;;;;;;;7306975;19;140720;-80
2023/09/08 08:45:11;;;;;;;5.28;3.40;;;;;;;;;;7306104;19;141507;-81
2023/09/08 08:47:41;;;;;;;5.28;3.55;;;;;;;;;;7306121;19;141953;-85
2023/09/08 08:50:10;;;;;;;4.32;3.67;;;;;;;;;;7308668;19;140727;-78
2023/09/08 08:52:38;;;;;;;4.97;3.00;;;;;;;;;;7307521;19;140663;-85
2023/09/08 08:55:06;;;;;;;4.60;3.53;;;;;;;;;;7308048;19;141119;-87
2023/09/08 08:57:34;;;;;;;3.45;3.00;;;;;;;;;;7308718;19;141897;-87
2023/09/08 09:00:01;;;;;;;4.05;3.38;;;;;;;;;;7305633;19;140521;-76
2023/09/08 09:02:29;;;;;;;3.63;3.33;;;;;;;;;;7305451;19;140481;-75
2023/09/08 09:04:56;;;;;;;4.57;3.60;;;;;;;;;;7305885;19;140955;-77
2023/09/08 09:07:24;;;;;;;3.95;3.55;;;;;;;;;;7304932;19;141227;-77
2023/09/08 09:09:51;;;;;;;3.72;3.30;;;;;;;;;;7306096;19;140408;-77
2023/09/08 09:12:19;;;;;;;3.47;3.17;;;;;;;;;;7302996;19;140749;-76
2023/09/08 09:14:49;;;;;;;3.50;3.20;;;;;;;;;;7301894;19;141955;-74
2023/09/08 09:17:16;;;;;;;;;;;;;;;;;;7305939;19;141022;-80
2023/09/08 09:19:43;;;;;;;3.58;3.22;;;;;;;;;;7302742;19;140668;-79
2023/09/08 09:22:11;;;;;;;4.00;3.38;;;;;;;;;;7314101;19;140618;-87
2023/09/08 09:24:43;;;;;;;4.50;3.20;;;;;;;;;;7314368;19;141042;-94
2023/09/08 09:30:13;;;;;;;4.28;3.50;;;;;;;;;;7337326;19;139437;-93
2023/09/08 09:32:40;;;;;;;4.32;3.53;;;;;;;;;;7334230;19;140131;-93
2023/09/08 09:35:07;;;;;;;3.95;3.55;;;;;;;;;;7332224;19;139441;-94
2023/09/08 09:37:35;;;;;;;3.65;2.95;;;;;;;;;;7308950;19;140805;-94
2023/09/08 09:40:07;;;;;;;3.83;3.27;;;;;;;;;;7308302;19;140462;-87
2023/09/08 09:42:34;;;;;;;;;;;;;;;;;;7307256;19;140308;-87
2023/09/08 09:45:02;;;;;;;4.63;3.70;;;;;;;;;;7304972;19;149811;-87
2023/09/08 09:47:29;;;;;;;3.20;2.90;;;;;;;;;;7306035;19;140708;-86
2023/09/08 09:49:58;;;;;;;3.58;3.28;;;;;;;;;;7303543;19;140406;-87
2023/09/08 09:52:26;;;;;;;3.75;3.20;;;;;;;;;;7305474;19;140413;-89
2023/09/08 09:54:54;;;;;;;4.63;3.38;;;;;;;;;;7305637;19;140797;-93
2023/09/08 09:57:23;;;;;;;3.55;3.25;;;;;;;;;;7304491;19;142012;-76
2023/09/08 09:59:51;;;;;;;3.55;3.20;;;;;;;;;;7304838;19;140383;-79
2023/09/08 10:02:21;;;;;;;4.13;3.47;;;;;;;;;;7304182;19;141438;-78
2023/09/08 10:04:49;;;;;;;4.13;3.20;;;;;;;;;;7303172;19;144705;-82
2023/09/08 10:07:17;;;;;;;4.45;3.33;;;;;;;;;;7303447;19;141894;-79
2023/09/08 10:09:46;;;;;;;4.07;3.50;;;;;;;;;;7302390;19;140709;-78
2023/09/08 10:12:15;;;;;;;5.80;3.40;;;;;;;;;;7302499;19;141616;-78
2023/09/08 10:14:43;;;;;;;4.07;3.10;;;;;;;;;;7303535;19;140471;-80
2023/09/08 10:17:16;;;;;;;3.83;3.42;;;;;;;;;;7303266;19;142371;-81
2023/09/08 10:19:48;;;;;;;4.38;3.65;;;;;;;;;;7302890;19;140813;-85
2023/09/08 10:22:19;;;;;;;3.78;3.08;;;;;;;;;;7302770;19;140710;-80
2023/09/08 10:24:48;;;;;;;3.40;3.10;;;;;;;;;;7303488;19;141419;-82
2023/09/08 10:27:18;;;;;;;4.07;3.60;;;;;;;;;;7303070;19;140784;-82
2023/09/08 10:29:46;;;;;;;4.85;3.28;;;;;;;;;;7303144;19;140647;-80
2023/09/08 10:32:17;;;;;;;3.58;3.20;;;;;;;;;;7302764;19;140699;-74
2023/09/08 10:34:49;;;;;;;4.07;3.10;;;;;;;;;;7302861;19;140518;-78
2023/09/08 10:37:29;;;;;;;3.83;3.47;;;;;;;;;;7302947;19;141352;-78
2023/09/08 10:40:16;;;;;;;3.93;3.30;;;;;;;;;;7303652;19;140601;-79
2023/09/08 10:42:43;;;;;;;4.47;3.47;;;;;;;;;;7302395;19;140625;-79
2023/09/08 10:45:17;;;;;;;3.40;3.10;;;;;;;;;;7302378;19;141244;-78
2023/09/08 10:47:45;;;;;;;3.47;3.15;;;;;;;;;;7302475;19;142951;-77
2023/09/08 10:50:31;;;;;;;3.30;3.00;;;;;;;;;;7302953;19;140460;-79
2023/09/08 10:53:14;;;;;;;3.67;3.20;;;;;;;;;;7301018;19;140734;-78
2023/09/08 10:55:43;;;;;;;4.53;3.10;;;;;;;;;;7301007;19;140753;-77
2023/09/08 10:58:16;;;;;;;3.63;3.30;;;;;;;;;;7300032;19;140870;-77
2023/09/08 11:00:45;;;;;;;3.22;2.92;;;;;;;;;;7302491;19;140793;-77
2023/09/08 11:03:13;;;;;;;3.53;3.22;;;;;;;;;;7301681;19;141302;-76
2023/09/08 11:05:42;;;;;;;3.47;3.00;;;;;;;;;;7300370;19;140983;-77
2023/09/08 11:08:10;;;;;;;3.28;2.97;;;;;;;;;;7300943;19;141604;-78
2023/09/08 11:10:40;;;;;;;3.30;3.00;;;;;;;;;;7302326;19;140528;-78
2023/09/08 11:13:08;;;;;;;4.38;3.50;;;;;;;;;;7300049;19;140743;-77
2023/09/08 11:15:36;;;;;;;3.17;2.88;;;;;;;;;;7300300;19;140893;-76
2023/09/08 11:18:04;;;;;;;3.10;2.80;;;;;;;;;;7300119;19;142379;-80
2023/09/08 11:20:32;;;;;;;3.05;2.80;;;;;;;;;;7301478;19;140749;-80
2023/09/08 11:22:59;;;;;;;4.10;3.20;;;;;;;;;;7301603;19;140820;-78
2023/09/08 11:25:26;;;;;;;4.65;3.50;;;;;;;;;;7300621;19;142673;-78
2023/09/08 11:27:54;;;;;;;3.50;3.20;;;;;;;;;;7298096;19;142646;-76
2023/09/08 11:30:21;;;;;;;3.08;2.80;;;;;;;;;;7300620;19;140436;-74
2023/09/08 11:32:49;;;;;;;3.40;3.10;;;;;;;;;;7300968;19;140729;-76
2023/09/08 11:35:20;;;;;;;4.10;2.90;;;;;;;;;;7299957;19;142002;-75
2023/09/08 11:37:49;;;;;;;3.25;2.78;;;;;;;;;;7299801;19;142359;-75
2023/09/08 11:40:16;;;;;;;5.30;2.90;;;;;;;;;;7300174;19;140539;-76
2023/09/08 11:42:44;;;;;;;3.40;3.05;;;;;;;;;;7300394;19;140698;-76
2023/09/08 11:45:17;;;;;;;3.50;2.95;;;;;;;;;;7300032;19;141299;-77
2023/09/08 11:47:45;;;;;;;3.00;2.70;;;;;;;;;;7299890;19;141399;-77
2023/09/08 11:50:15;;;;;;;2.90;2.60;;;;;;;;;;7298694;19;140791;-76
2023/09/08 11:52:42;;;;;;;;;;;;;;;;;;7300514;19;140962;-77
2023/09/08 11:55:11;;;;;;;3.50;2.97;;;;;;;;;;7299048;19;151988;-76
2023/09/08 11:57:38;;;;;;;3.17;2.85;;;;;;;;;;7299913;19;142027;-76
2023/09/08 12:00:06;;;;;;;3.03;2.70;;;;;;;;;;7300257;19;140649;-76
2023/09/08 12:02:36;;;;;;;3.13;2.83;;;;;;;;;;7299560;19;140446;-77
2023/09/08 12:05:03;;;;;;;2.88;2.65;;;;;;;;;;7298572;19;141905;-76
2023/09/08 12:07:31;;;;;;;3.45;2.80;;;;;;;;;;7300137;19;142549;-77
2023/09/08 12:09:58;;;;;;;2.90;2.70;;;;;;;;;;7299446;19;140707;-77
2023/09/08 12:12:26;;;;;;;2.97;2.67;;;;;;;;;;7298222;19;140568;-77
2023/09/08 12:14:53;;;;;;;4.32;2.95;;;;;;;;;;7298160;19;141003;-77
2023/09/08 12:17:24;;;;;;;4.10;2.97;;;;;;;;;;7297876;19;142726;-77
2023/09/08 12:19:51;;;;;;;3.08;2.78;;;;;;;;;;7299878;19;140821;-77
2023/09/08 12:22:22;;;;;;;4.40;2.88;;;;;;;;;;7299329;19;140799;-77
2023/09/08 12:24:56;;;;;;;3.10;2.80;;;;;;;;;;7299792;19;141169;-76
2023/09/08 12:27:23;;;;;;;3.35;3.05;;;;;;;;;;7299974;19;142381;-77
2023/09/08 12:29:54;;;;;;;3.28;2.75;;;;;;;;;;7298972;19;140484;-76
2023/09/08 12:32:24;;;;;;;2.92;2.63;;;;;;;;;;7300787;19;140667;-77
2023/09/08 12:34:51;;;;;;;;;;;;;;;;;;7303184;19;140640;-77
2023/09/08 12:37:24;;;;;;;2.90;2.70;;;;;;;;;;7308614;19;150572;-77
2023/09/08 12:39:51;;;;;;;3.20;2.90;;;;;;;;;;7308852;19;140476;-77
2023/09/08 12:42:19;;;;;;;3.05;2.78;;;;;;;;;;7307323;19;140365;-76
2023/09/08 12:44:47;;;;;;;2.65;2.45;;;;;;;;;;7306638;19;141303;-78
2023/09/08 12:47:14;;;;;;;2.88;2.67;;;;;;;;;;7306046;19;141238;-77
2023/09/08 12:49:41;;;;;;;3.08;2.80;;;;;;;;;;7309890;19;141009;-77
2023/09/08 12:52:09;;;;;;;2.80;2.60;;;;;;;;;;7312348;19;140809;-75
2023/09/08 12:54:36;;;;;;;3.00;2.65;;;;;;;;;;7312841;19;140750;-76
2023/09/08 12:57:03;;;;;;;2.70;2.50;;;;;;;;;;7315093;19;141850;-76
2023/09/08 12:59:32;;;;;;;2.70;2.50;;;;;;;;;;7313378;19;140750;-76
2023/09/08 13:02:01;;;;;;;2.70;2.50;;;;;;;;;;7311706;19;140668;-76
2023/09/08 13:04:28;;;;;;;3.05;2.75;;;;;;;;;;7304600;19;140720;-75
2023/09/08 13:06:55;;;;;;;3.13;2.33;;;;;;;;;;7305763;19;141910;-75
2023/09/08 13:09:23;;;;;;;2.70;2.50;;;;;;;;;;7307191;19;140786;-75
2023/09/08 13:11:51;;;;;;;2.88;2.60;;;;;;;;;;7304989;19;140957;-76
2023/09/08 13:14:18;;;;;;;2.60;2.40;;;;;;;;;;7303656;19;140651;-77
2023/09/08 13:16:45;;;;;;;3.03;2.75;;;;;;;;;;7307413;19;142895;-76
2023/09/08 13:19:13;;;;;;;2.38;2.17;;;;;;;;;;7305298;19;140431;-76
2023/09/08 13:21:40;;;;;;;2.78;2.33;;;;;;;;;;7304242;19;140603;-77
2023/09/08 13:24:08;;;;;;;2.22;2.13;;;;;;;;;;7304815;19;141860;-75
2023/09/08 13:26:36;;;;;;;2.60;2.40;;;;;;;;;;7303410;19;140992;-74
2023/09/08 13:29:06;;;;;;;2.40;2.20;;;;;;;;;;7303950;19;140712;-74
2023/09/08 13:31:34;;;;;;;2.67;2.47;;;;;;;;;;7304806;19;140803;-75
2023/09/08 13:34:06;;;;;;;2.50;2.30;;;;;;;;;;7302044;19;141935;-77
2023/09/08 13:36:33;;;;;;;2.70;2.50;;;;;;;;;;7304325;19;142807;-77
2023/09/08 13:39:01;;;;;;;2.40;2.20;;;;;;;;;;7304627;19;140364;-76
2023/09/08 13:41:44;;;;;;;2.55;2.35;;;;;;;;;;7304297;19;140559;-76
2023/09/08 13:44:12;;;;;;;2.92;2.40;;;;;;;;;;7303688;19;140949;-77
2023/09/08 13:46:40;;;;;;;2.75;2.55;;;;;;;;;;7302468;19;141011;-78
2023/09/08 13:49:10;;;;;;;2.38;2.17;;;;;;;;;;7302892;19;140592;-77
2023/09/08 13:51:38;;;;;;;2.65;2.17;;;;;;;;;;7302576;19;140616;-76
2023/09/08 13:54:08;;;;;;;4.47;3.03;;;;;;;;;;7302941;19;140610;-76
2023/09/08 13:56:39;;;;;;;5.03;3.10;;;;;;;;;;7301139;19;141983;-77
2023/09/08 13:59:11;;;;;;;5.53;3.45;;;;;;;;;;7302241;19;140527;-76
2023/09/08 14:01:44;;;;;;;5.00;3.28;;;;;;;;;;7302350;19;140965;-77
2023/09/08 14:04:32;;;;;;;6.45;3.05;;;;;;;;;;7303324;19;140708;-76
2023/09/08 14:07:00;;;;;;;4.82;3.42;;;;;;;;;;7303660;19;141925;-76
2023/09/08 14:09:33;;;;;;;5.43;3.30;;;;;;;;;;7301880;19;140639;-75
2023/09/08 14:12:19;;;;;;;5.97;3.50;;;;;;;;;;7303495;19;140568;-76
2023/09/08 14:14:46;;;;;;;5.97;3.47;;;;;;;;;;7300720;19;140689;-76
2023/09/08 14:17:13;;;;;;;7.78;3.47;;;;;;;;;;7303711;19;141838;-77
2023/09/08 14:19:41;;;;;;;3.55;3.05;;;;;;;;;;7302031;19;141006;-76
2023/09/08 14:22:09;;;;;;;3.88;3.20;;;;;;;;;;7301227;19;140454;-77
2023/09/08 14:24:37;;;;;;;5.68;3.35;;;;;;;;;;7301104;19;141619;-76
2023/09/08 14:27:04;;;;;;;5.93;3.83;;;;;;;;;;7302260;19;142771;-75
2023/09/08 14:29:33;;;;;;;5.70;3.70;;;;;;;;;;7302188;19;140506;-78
2023/09/08 14:32:00;;;;;;;5.85;3.20;;;;;;;;;;7302737;19;140856;-77
2023/09/08 14:34:27;;;;;;;4.85;3.25;;;;;;;;;;7301915;19;141220;-75
2023/09/08 14:36:54;;;;;;;5.40;3.30;;;;;;;;;;7301715;19;142293;-77
2023/09/08 14:39:21;;;;;;;5.35;3.50;;;;;;;;;;7303144;19;140668;-78